CWHN

Jimmy Lake Airport

Jimmy Lake, Canada
METAR CWHN 170000Z AUTO 22005KT 9SM CLR M04/M08 A2973 RMK SLP102
Observed Flight Rules
Dec-17 @ 00:00 UTC (21 minutes ago) Visual Flight Rules
Wind Visibility Clouds
220° at 5 knots 9 miles
  • Clear skies
Temperatures Readings
Current -4°C / 25°F
Dewpoint -8°C / 18°F
Humidity 74%
Altimeter 29.73" Hg
Pressure 1010.2 hPa
Elevation 636
METAR CWHN 170000Z AUTO 22005KT 9SM CLR M04/M08 A2973 RMK SLP102
Observed Flight Rules
Dec-17 @ 00:00 UTC
(21 minutes ago)
VFR
Wind Visibility
220° at 5 knots 9 miles
Clouds
  • Clear skies
Temperature Dewpoint
-4°C / 25°F -8°C / 18°F
Humidity Altimeter Pressure
74% 29.73" Hg 1010.2 hPa